Observations for MANCHESTER INTL, United Kingdom (EGCC)

EGCC 280520Z AUTO 06006KT 9999 -RA BKN038/// //////TCU 12/11 Q1001 TEMPO RA 
EGCC 280450Z AUTO 05006KT 9999 -RA OVC035/// //////TCU 12/11 Q1001 TEMPO RA 
EGCC 280420Z AUTO 04007KT 9999 -RA OVC033 12/11 Q1001 TEMPO RA  
EGCC 280350Z AUTO 04007KT 9999 -RA SCT015 OVC031 12/11 Q1001 TEMPO RA BKN014
EGCC 280320Z AUTO 03006KT 9999 -RA BKN015 OVC034 12/11 Q1001 TEMPO RA BKN014
EGCC 280250Z AUTO 04005KT 9999 -RA BKN015 OVC034 12/11 Q1001 TEMPO RA BKN014
EGCC 280220Z AUTO 06003KT 9999 -RA BKN014 OVC034 13/11 Q1002 TEMPO RA   
EGCC 280150Z AUTO 06003KT 9999 BKN011 OVC020 13/12 Q1002 TEMPO RA   
EGCC 280120Z AUTO 07005KT 030V100 9999 -RA BKN013 OVC033 13/12 Q1002 TEMPO RA   
EGCC 280050Z AUTO 06006KT 9999 -RA BKN013 OVC034 13/12 Q1003 TEMPO RA   
EGCC 280020Z AUTO 07006KT 9999 -RA BKN011 OVC034 13/12 Q1003 TEMPO RA   
EGCC 272350Z AUTO 08005KT 050V110 9999 -RA BKN011 OVC033 13/12 Q1003 TEMPO RA   
EGCC 272320Z AUTO 08006KT 040V110 9999 -RA BKN012 OVC031 14/11 Q1003 TEMPO RA   
EGCC 272250Z AUTO 07003KT 9999 OVC030 14/11 Q1004 NOSIG 
EGCC 272220Z AUTO 07003KT 9999 OVC028 14/11 Q1004 TEMPO BKN012  
EGCC 272150Z AUTO 08004KT 9999 OVC026 14/12 Q1004 TEMPO BKN012  
EGCC 272120Z AUTO 09004KT 050V120 9999 -RA SCT012 OVC026 14/12 Q1004 TEMPO BKN012   
EGCC 272050Z AUTO 09004KT 040V120 9999 BKN011 OVC024 14/12 Q1004 NOSIG  
EGCC 272020Z AUTO 09004KT 050V140 9999 BKN012 BKN017 OVC024 14/12 Q1004 NOSIG   
EGCC 271950Z AUTO 09004KT 050V140 9999 BKN012 OVC016 15/12 Q1004 TEMPO RA   
EGCC 271920Z AUTO 10006KT 040V190 9999 BKN013 OVC020 15/13 Q1004 TEMPO RA   
EGCC 271850Z AUTO 08005KT 060V120 9999 SCT014 OVC020 16/13 Q1004 TEMPO BKN014   
EGCC 271820Z AUTO 09004KT 050V150 9999 BKN015 OVC037 16/13 Q1005 TEMPO RA BKN010
EGCC 271750Z AUTO 09005KT 050V140 9999 BKN021 OVC032 16/13 Q1005 NOSIG  
EGCC 271720Z AUTO 10005KT 010V170 9999 BKN018 OVC023 16/12 Q1005 TEMPO RA   
EGCC 271650Z AUTO 09006KT 060V170 9999 SCT020 BKN027 OVC044 16/12 Q1005 NOSIG   
EGCC 271620Z AUTO 11005KT 040V160 9999 BKN022 OVC045 17/12 Q1005 NOSIG  
EGCC 271550Z AUTO 11005KT 050V190 9999 BKN024 OVC045 17/12 Q1005 NOSIG  
EGCC 271520Z AUTO 12007KT 010V170 9999 SCT025 BKN045 17/12 Q1006 NOSIG  
EGCC 271450Z AUTO VRB07KT 9999 BKN024 BKN042 17/12 Q1006 NOSIG  
EGCC 271420Z AUTO 10006KT 040V180 9999 SCT026 BKN041 17/12 Q1006 NOSIG  
EGCC 271350Z AUTO VRB05KT 9999 BKN025 OVC044 17/11 Q1006 NOSIG  
EGCC 271320Z AUTO 09007KT 040V140 9999 BKN024/// OVC043/// 16/11 Q1006 NOSIG
EGCC 271250Z AUTO 12005KT 060V200 9999 BKN023 OVC044 16/11 Q1007 TEMPO RA   
EGCC 271220Z AUTO 14006KT 070V220 9999 FEW027 BKN042 17/12 Q1007 TEMPO RA   
EGCC 271150Z AUTO 11005KT 030V190 9999 FEW033 BKN046 17/12 Q1007 TEMPO RA   
EGCC 271120Z AUTO 09004KT 060V160 9999 SCT048 15/12 Q1007 TEMPO RA  
EGCC 271050Z AUTO 09005KT 030V140 9999 -RA SCT047 15/11 Q1007 TEMPO RA  
EGCC 271020Z AUTO 09005KT 040V160 9999 OVC037 15/11 Q1008 TEMPO RA  
EGCC 270950Z VRB03KT 9999 -RA SCT042 14/10 Q1008 TEMPO RA   
EGCC 270920Z 09004KT 010V160 9999 6000NW -RA SCT045 13/09 Q1008 TEMPO RA
EGCC 270850Z 10005KT 030V160 9999 -RA FEW039 13/09 Q1008 TEMPO RA   
EGCC 270820Z AUTO 09004KT 040V130 9999 -RA FEW041/// //////TCU 13/10 Q1009 TEMPO RA 
EGCC 270750Z 07006KT 9999 5000NW -RA SCT031 BKN043 13/10 Q1009 TEMPO RA 
EGCC 270720Z 06006KT 9000 4000N -RA SCT025 BKN041 13/09 Q1010 TEMPO RA  
EGCC 270650Z VRB03KT 9000 4000NW -RA SCT025 BKN032 13/08 Q1009 TEMPO RA 
EGCC 270620Z 13004KT 070V210 9999 5000N -RA BKN029 14/07 Q1009 TEMPO 5000 RA
EGCC 270620Z AUTO 13004KT 070V210 9999 -RA OVC028/// //////TCU 14/07 Q1009 TEMPO RA
EGCC 270550Z AUTO 13006KT 070V180 9999 OVC034/// //////TCU 14/07 Q1009 TEMPO RA 
EGCC 270520Z AUTO VRB05KT 9999 OVC035 14/07 Q1009 TEMPO RA  
EGCC 270450Z AUTO 13005KT 060V200 9999 -RA BKN034/// OVC048/// //////TCU 14/07 Q1009 TEMPO RA